Glen Mills, PA

4:30 AM EDT on July 27, 2016 (GMT -0400)
Thornton | | Change Station

Elev 459 ft 39.91 °N, 75.54 °W | Updated 8 seconds ago

Overcast
Overcast
77.0 °F
Feels Like 79 °F
N
0.0
Wind Variable Wind from NE
Gusts 0.0 mph

Today
High -- | Low -- °F
--% Chance of Precip.
Yesterday
High -- | Low -- °F
Precip. -- in
Pressure 29.93 in
Visibility 10.0 miles
Clouds Scattered Clouds 16000 ft
Mostly Cloudy 20000 ft
Overcast 25000 ft
Heat Index 79 °F
Dew Point 70 °F
Humidity 79%
Rainfall 0.00 in
Snow Depth Not available.
5:56 AM 8:19 PM
Last Quarter, 45% visible
METAR KPHL 270754Z 06004KT 10SM SCT160 BKN200 OVC250 26/19 A2993 RMK AO2 SLP135 T02610189 $
Pressure 29.93 in
Visibility 10.0 miles
Clouds Scattered Clouds 16000 ft
Mostly Cloudy 20000 ft
Overcast 25000 ft
Heat Index 79 °F
Dew Point 70 °F
Humidity 79%
Rainfall 0.00 in
Snow Depth Not available.
5:56 AM 8:19 PM
Last Quarter, 45% visible
METAR KPHL 270754Z 06004KT 10SM SCT160 BKN200 OVC250 26/19 A2993 RMK AO2 SLP135 T02610189 $

10-Day Weather Forecast

Almanac

Astronomy

Jul. 27, 2016 Rise Set
Actual Time
Civil Twilight
Nautical Twilight
Astronomical Twilight
Moon
Length of Visible Light
Length of Day
Tomorrow will be .
, % of the Moon is Illuminated

Today's Extremes

State Highs State Lows

Community

WunderPhotos

Upload Photos

1,927,818 photos uploaded!

WunderBlog® & News

Nearby

Air Quality

  Air Quality AQ Index Pollutant
Not available.

Snow Depth

Station Depth Elevation

Earthquake Activity

City Distance Mag. Time & Date
Minimum magnitude displayed is 2.5.

Coastal Water Temperatures

Place Temperature

Stations

Nearby Weather Stations

Station Location Temp. Windchill Dew Point Humidity Wind Precip. Elev Updated Type
                   

Watches & Warnings

There are currently no watches in effect.